sensor_id;sensor_type;location;lat;lon;timestamp;P1;durP1;ratioP1;P2;durP2;ratioP2
62582;SDS011;48641;51.676;5.808;2022-10-22T00:01:05;3.35;;;1.33;;
62582;SDS011;48641;51.676;5.808;2022-10-22T00:03:31;3.25;;;1.40;;
62582;SDS011;48641;51.676;5.808;2022-10-22T00:05:56;3.17;;;1.40;;
62582;SDS011;48641;51.676;5.808;2022-10-22T00:08:22;2.97;;;1.30;;
62582;SDS011;48641;51.676;5.808;2022-10-22T00:10:47;3.33;;;1.30;;
62582;SDS011;48641;51.676;5.808;2022-10-22T00:13:13;3.38;;;1.40;;
62582;SDS011;48641;51.676;5.808;2022-10-22T00:15:39;2.88;;;1.20;;
62582;SDS011;48641;51.676;5.808;2022-10-22T00:18:05;4.53;;;1.40;;
62582;SDS011;48641;51.676;5.808;2022-10-22T00:20:30;3.03;;;1.33;;
62582;SDS011;48641;51.676;5.808;2022-10-22T00:22:56;2.92;;;1.30;;
62582;SDS011;48641;51.676;5.808;2022-10-22T00:25:21;3.17;;;1.40;;
62582;SDS011;48641;51.676;5.808;2022-10-22T00:27:47;2.40;;;1.10;;
62582;SDS011;48641;51.676;5.808;2022-10-22T00:30:12;4.22;;;1.38;;
62582;SDS011;48641;51.676;5.808;2022-10-22T00:32:38;3.38;;;1.30;;
62582;SDS011;48641;51.676;5.808;2022-10-22T00:35:04;3.42;;;1.40;;
62582;SDS011;48641;51.676;5.808;2022-10-22T00:37:30;2.58;;;1.30;;
62582;SDS011;48641;51.676;5.808;2022-10-22T00:39:56;3.65;;;1.13;;
62582;SDS011;48641;51.676;5.808;2022-10-22T00:42:23;3.03;;;1.20;;
62582;SDS011;48641;51.676;5.808;2022-10-22T00:44:59;3.67;;;1.15;;
62582;SDS011;48641;51.676;5.808;2022-10-22T00:47:26;3.53;;;1.40;;
62582;SDS011;48641;51.676;5.808;2022-10-22T00:49:54;3.72;;;1.30;;
62582;SDS011;48641;51.676;5.808;2022-10-22T00:52:21;3.00;;;1.35;;
62582;SDS011;48641;51.676;5.808;2022-10-22T00:54:47;4.03;;;1.42;;
62582;SDS011;48641;51.676;5.808;2022-10-22T00:57:13;3.40;;;1.30;;
62582;SDS011;48641;51.676;5.808;2022-10-22T00:59:40;3.10;;;1.30;;
62582;SDS011;48641;51.676;5.808;2022-10-22T01:02:06;2.53;;;1.20;;
62582;SDS011;48641;51.676;5.808;2022-10-22T01:04:32;3.53;;;1.38;;
62582;SDS011;48641;51.676;5.808;2022-10-22T01:06:57;3.13;;;1.10;;
62582;SDS011;48641;51.676;5.808;2022-10-22T01:09:29;4.18;;;1.20;;
62582;SDS011;48641;51.676;5.808;2022-10-22T01:12:08;2.78;;;1.30;;
62582;SDS011;48641;51.676;5.808;2022-10-22T01:15:00;2.75;;;1.30;;
62582;SDS011;48641;51.676;5.808;2022-10-22T01:17:47;2.20;;;1.10;;
62582;SDS011;48641;51.676;5.808;2022-10-22T01:26:33;2.60;;;1.17;;
62582;SDS011;48641;51.676;5.808;2022-10-22T01:29:14;3.78;;;1.33;;
62582;SDS011;48641;51.676;5.808;2022-10-22T01:31:49;3.17;;;1.10;;
62582;SDS011;48641;51.676;5.808;2022-10-22T01:34:22;4.33;;;1.23;;
62582;SDS011;48641;51.676;5.808;2022-10-22T01:36:50;3.58;;;1.27;;
62582;SDS011;48641;51.676;5.808;2022-10-22T01:39:17;3.38;;;1.30;;
62582;SDS011;48641;51.676;5.808;2022-10-22T01:41:44;2.45;;;1.20;;
62582;SDS011;48641;51.676;5.808;2022-10-22T01:46:48;3.35;;;1.20;;
62582;SDS011;48641;51.676;5.808;2022-10-22T01:49:25;3.33;;;1.27;;
62582;SDS011;48641;51.676;5.808;2022-10-22T01:54:48;2.92;;;1.20;;
62582;SDS011;48641;51.676;5.808;2022-10-22T01:57:30;2.35;;;1.27;;
62582;SDS011;48641;51.676;5.808;2022-10-22T02:00:07;2.65;;;0.82;;
62582;SDS011;48641;51.676;5.808;2022-10-22T02:05:12;3.45;;;1.20;;
62582;SDS011;48641;51.676;5.808;2022-10-22T02:07:49;2.05;;;1.10;;
62582;SDS011;48641;51.676;5.808;2022-10-22T02:10:19;4.40;;;1.38;;
62582;SDS011;48641;51.676;5.808;2022-10-22T02:12:49;2.70;;;1.30;;
62582;SDS011;48641;51.676;5.808;2022-10-22T02:15:18;2.35;;;1.10;;
62582;SDS011;48641;51.676;5.808;2022-10-22T02:17:46;3.35;;;1.30;;
62582;SDS011;48641;51.676;5.808;2022-10-22T02:20:14;3.67;;;1.20;;
62582;SDS011;48641;51.676;5.808;2022-10-22T02:22:43;3.47;;;1.27;;
62582;SDS011;48641;51.676;5.808;2022-10-22T02:25:09;3.78;;;1.20;;
62582;SDS011;48641;51.676;5.808;2022-10-22T02:27:40;3.20;;;1.20;;
62582;SDS011;48641;51.676;5.808;2022-10-22T02:30:12;3.05;;;1.13;;
62582;SDS011;48641;51.676;5.808;2022-10-22T02:32:52;3.30;;;1.33;;
62582;SDS011;48641;51.676;5.808;2022-10-22T02:35:32;2.72;;;1.20;;
62582;SDS011;48641;51.676;5.808;2022-10-22T02:37:59;4.15;;;1.30;;
62582;SDS011;48641;51.676;5.808;2022-10-22T02:40:25;3.08;;;1.25;;
62582;SDS011;48641;51.676;5.808;2022-10-22T02:42:52;3.33;;;1.27;;
62582;SDS011;48641;51.676;5.808;2022-10-22T02:45:18;2.70;;;1.10;;
62582;SDS011;48641;51.676;5.808;2022-10-22T02:47:44;2.42;;;1.20;;
62582;SDS011;48641;51.676;5.808;2022-10-22T02:50:11;3.10;;;1.30;;
62582;SDS011;48641;51.676;5.808;2022-10-22T02:52:37;1.63;;;1.00;;
62582;SDS011;48641;51.676;5.808;2022-10-22T02:55:03;3.00;;;1.10;;
62582;SDS011;48641;51.676;5.808;2022-10-22T02:57:29;3.15;;;1.23;;
62582;SDS011;48641;51.676;5.808;2022-10-22T02:59:55;2.25;;;1.10;;
62582;SDS011;48641;51.676;5.808;2022-10-22T03:02:20;3.30;;;1.35;;
62582;SDS011;48641;51.676;5.808;2022-10-22T03:04:46;3.20;;;1.20;;
62582;SDS011;48641;51.676;5.808;2022-10-22T03:07:11;3.30;;;1.13;;
62582;SDS011;48641;51.676;5.808;2022-10-22T03:09:37;3.22;;;1.33;;
62582;SDS011;48641;51.676;5.808;2022-10-22T03:12:02;3.05;;;1.30;;
62582;SDS011;48641;51.676;5.808;2022-10-22T03:14:28;2.75;;;1.15;;
62582;SDS011;48641;51.676;5.808;2022-10-22T03:16:54;2.60;;;1.30;;
62582;SDS011;48641;51.676;5.808;2022-10-22T03:19:19;2.58;;;1.25;;
62582;SDS011;48641;51.676;5.808;2022-10-22T03:21:50;2.33;;;1.02;;
62582;SDS011;48641;51.676;5.808;2022-10-22T03:24:26;2.38;;;1.00;;
62582;SDS011;48641;51.676;5.808;2022-10-22T03:26:55;2.70;;;1.00;;
62582;SDS011;48641;51.676;5.808;2022-10-22T03:29:21;2.97;;;1.17;;
62582;SDS011;48641;51.676;5.808;2022-10-22T03:31:50;3.20;;;1.20;;
62582;SDS011;48641;51.676;5.808;2022-10-22T03:34:16;2.65;;;1.00;;
62582;SDS011;48641;51.676;5.808;2022-10-22T03:36:41;3.47;;;1.40;;
62582;SDS011;48641;51.676;5.808;2022-10-22T03:39:08;2.95;;;1.10;;
62582;SDS011;48641;51.676;5.808;2022-10-22T03:41:36;2.17;;;1.00;;
62582;SDS011;48641;51.676;5.808;2022-10-22T03:44:02;2.28;;;1.20;;
62582;SDS011;48641;51.676;5.808;2022-10-22T03:46:28;3.70;;;1.00;;
62582;SDS011;48641;51.676;5.808;2022-10-22T03:48:54;3.47;;;1.17;;
62582;SDS011;48641;51.676;5.808;2022-10-22T03:51:19;2.75;;;1.10;;
62582;SDS011;48641;51.676;5.808;2022-10-22T03:53:45;2.67;;;1.17;;
62582;SDS011;48641;51.676;5.808;2022-10-22T03:56:11;2.33;;;0.98;;
62582;SDS011;48641;51.676;5.808;2022-10-22T03:58:38;2.15;;;1.00;;
62582;SDS011;48641;51.676;5.808;2022-10-22T04:01:08;4.40;;;1.02;;
62582;SDS011;48641;51.676;5.808;2022-10-22T04:03:35;2.65;;;1.10;;
62582;SDS011;48641;51.676;5.808;2022-10-22T04:06:05;3.22;;;1.20;;
62582;SDS011;48641;51.676;5.808;2022-10-22T04:08:32;2.67;;;1.20;;
62582;SDS011;48641;51.676;5.808;2022-10-22T04:10:58;2.35;;;1.10;;
62582;SDS011;48641;51.676;5.808;2022-10-22T04:13:24;2.40;;;1.08;;
62582;SDS011;48641;51.676;5.808;2022-10-22T04:15:49;3.25;;;1.40;;
62582;SDS011;48641;51.676;5.808;2022-10-22T04:18:16;3.05;;;1.10;;
62582;SDS011;48641;51.676;5.808;2022-10-22T04:20:46;2.78;;;1.15;;
62582;SDS011;48641;51.676;5.808;2022-10-22T04:23:12;2.60;;;1.20;;
62582;SDS011;48641;51.676;5.808;2022-10-22T04:25:38;3.40;;;1.00;;
62582;SDS011;48641;51.676;5.808;2022-10-22T04:28:06;2.35;;;1.15;;
62582;SDS011;48641;51.676;5.808;2022-10-22T04:30:34;2.75;;;1.10;;
62582;SDS011;48641;51.676;5.808;2022-10-22T04:33:00;1.85;;;1.00;;
62582;SDS011;48641;51.676;5.808;2022-10-22T04:35:26;3.53;;;1.35;;
62582;SDS011;48641;51.676;5.808;2022-10-22T04:37:53;1.98;;;1.13;;
62582;SDS011;48641;51.676;5.808;2022-10-22T04:40:18;2.38;;;0.90;;
62582;SDS011;48641;51.676;5.808;2022-10-22T04:42:44;3.25;;;1.02;;
62582;SDS011;48641;51.676;5.808;2022-10-22T04:45:10;2.92;;;1.13;;
62582;SDS011;48641;51.676;5.808;2022-10-22T04:47:35;2.25;;;0.93;;
62582;SDS011;48641;51.676;5.808;2022-10-22T04:50:01;3.08;;;1.15;;
62582;SDS011;48641;51.676;5.808;2022-10-22T04:52:26;3.28;;;1.35;;
62582;SDS011;48641;51.676;5.808;2022-10-22T04:54:52;4.05;;;1.20;;
62582;SDS011;48641;51.676;5.808;2022-10-22T04:57:17;3.15;;;0.98;;
62582;SDS011;48641;51.676;5.808;2022-10-22T04:59:43;3.28;;;1.30;;
62582;SDS011;48641;51.676;5.808;2022-10-22T05:02:08;3.47;;;1.13;;
62582;SDS011;48641;51.676;5.808;2022-10-22T05:04:34;2.40;;;0.98;;
62582;SDS011;48641;51.676;5.808;2022-10-22T05:06:59;3.40;;;1.30;;
62582;SDS011;48641;51.676;5.808;2022-10-22T05:09:25;1.90;;;1.00;;
62582;SDS011;48641;51.676;5.808;2022-10-22T05:11:51;2.35;;;1.10;;
62582;SDS011;48641;51.676;5.808;2022-10-22T05:14:18;3.20;;;1.20;;
62582;SDS011;48641;51.676;5.808;2022-10-22T05:16:45;2.30;;;1.10;;
62582;SDS011;48641;51.676;5.808;2022-10-22T05:19:16;3.90;;;1.20;;
62582;SDS011;48641;51.676;5.808;2022-10-22T05:21:44;1.85;;;0.98;;
62582;SDS011;48641;51.676;5.808;2022-10-22T05:24:09;2.30;;;1.10;;
62582;SDS011;48641;51.676;5.808;2022-10-22T05:26:35;2.45;;;1.10;;
62582;SDS011;48641;51.676;5.808;2022-10-22T05:29:00;2.78;;;1.08;;
62582;SDS011;48641;51.676;5.808;2022-10-22T05:31:26;2.28;;;1.10;;
62582;SDS011;48641;51.676;5.808;2022-10-22T05:33:53;3.28;;;1.20;;
62582;SDS011;48641;51.676;5.808;2022-10-22T05:36:20;2.80;;;1.00;;
62582;SDS011;48641;51.676;5.808;2022-10-22T05:38:46;2.08;;;0.80;;
62582;SDS011;48641;51.676;5.808;2022-10-22T05:41:16;3.03;;;1.40;;
62582;SDS011;48641;51.676;5.808;2022-10-22T05:43:43;3.60;;;1.42;;
62582;SDS011;48641;51.676;5.808;2022-10-22T05:46:11;2.83;;;1.13;;
62582;SDS011;48641;51.676;5.808;2022-10-22T05:51:05;3.15;;;1.20;;
62582;SDS011;48641;51.676;5.808;2022-10-22T05:53:32;2.55;;;0.95;;
62582;SDS011;48641;51.676;5.808;2022-10-22T05:56:07;4.10;;;1.30;;
62582;SDS011;48641;51.676;5.808;2022-10-22T05:58:36;2.30;;;1.00;;
62582;SDS011;48641;51.676;5.808;2022-10-22T06:01:03;2.03;;;1.00;;
62582;SDS011;48641;51.676;5.808;2022-10-22T06:03:30;3.35;;;1.10;;
62582;SDS011;48641;51.676;5.808;2022-10-22T06:05:58;2.58;;;1.02;;
62582;SDS011;48641;51.676;5.808;2022-10-22T06:10:51;2.45;;;0.98;;
62582;SDS011;48641;51.676;5.808;2022-10-22T06:13:17;3.22;;;1.13;;
62582;SDS011;48641;51.676;5.808;2022-10-22T06:15:43;2.65;;;1.15;;
62582;SDS011;48641;51.676;5.808;2022-10-22T06:18:08;2.72;;;1.20;;
62582;SDS011;48641;51.676;5.808;2022-10-22T06:20:35;3.63;;;1.20;;
62582;SDS011;48641;51.676;5.808;2022-10-22T06:23:00;3.15;;;1.08;;
62582;SDS011;48641;51.676;5.808;2022-10-22T06:25:26;2.78;;;1.17;;
62582;SDS011;48641;51.676;5.808;2022-10-22T06:27:51;3.38;;;1.20;;
62582;SDS011;48641;51.676;5.808;2022-10-22T06:30:17;3.92;;;1.30;;
62582;SDS011;48641;51.676;5.808;2022-10-22T06:32:42;4.55;;;1.30;;
62582;SDS011;48641;51.676;5.808;2022-10-22T06:35:08;2.95;;;1.30;;
62582;SDS011;48641;51.676;5.808;2022-10-22T06:37:33;5.43;;;1.80;;
62582;SDS011;48641;51.676;5.808;2022-10-22T06:39:59;5.07;;;1.70;;
62582;SDS011;48641;51.676;5.808;2022-10-22T06:42:26;3.30;;;1.33;;
62582;SDS011;48641;51.676;5.808;2022-10-22T06:44:52;4.15;;;1.40;;
62582;SDS011;48641;51.676;5.808;2022-10-22T06:47:17;2.88;;;1.35;;
62582;SDS011;48641;51.676;5.808;2022-10-22T06:49:43;4.78;;;1.70;;
62582;SDS011;48641;51.676;5.808;2022-10-22T06:52:09;5.57;;;1.65;;
62582;SDS011;48641;51.676;5.808;2022-10-22T06:54:34;3.28;;;1.27;;
62582;SDS011;48641;51.676;5.808;2022-10-22T06:57:00;3.83;;;1.30;;
62582;SDS011;48641;51.676;5.808;2022-10-22T06:59:25;3.63;;;1.50;;
62582;SDS011;48641;51.676;5.808;2022-10-22T07:01:51;4.03;;;1.40;;
62582;SDS011;48641;51.676;5.808;2022-10-22T07:04:16;6.68;;;1.88;;
62582;SDS011;48641;51.676;5.808;2022-10-22T07:06:42;3.88;;;1.30;;
62582;SDS011;48641;51.676;5.808;2022-10-22T07:09:08;3.85;;;1.30;;
62582;SDS011;48641;51.676;5.808;2022-10-22T07:11:40;4.28;;;1.50;;
62582;SDS011;48641;51.676;5.808;2022-10-22T07:14:08;4.20;;;1.42;;
62582;SDS011;48641;51.676;5.808;2022-10-22T07:16:35;3.65;;;1.30;;
62582;SDS011;48641;51.676;5.808;2022-10-22T07:19:02;5.20;;;1.38;;
62582;SDS011;48641;51.676;5.808;2022-10-22T07:21:28;3.15;;;1.13;;
62582;SDS011;48641;51.676;5.808;2022-10-22T07:23:55;3.47;;;1.52;;
62582;SDS011;48641;51.676;5.808;2022-10-22T07:26:21;3.13;;;1.30;;
62582;SDS011;48641;51.676;5.808;2022-10-22T07:28:49;3.30;;;1.25;;
62582;SDS011;48641;51.676;5.808;2022-10-22T07:31:16;3.25;;;1.38;;
62582;SDS011;48641;51.676;5.808;2022-10-22T07:33:42;3.53;;;1.40;;
62582;SDS011;48641;51.676;5.808;2022-10-22T07:36:10;3.90;;;1.35;;
62582;SDS011;48641;51.676;5.808;2022-10-22T07:38:41;3.90;;;1.50;;
62582;SDS011;48641;51.676;5.808;2022-10-22T07:41:10;4.53;;;1.38;;
62582;SDS011;48641;51.676;5.808;2022-10-22T07:43:36;3.80;;;1.20;;
62582;SDS011;48641;51.676;5.808;2022-10-22T07:46:01;4.03;;;1.30;;
62582;SDS011;48641;51.676;5.808;2022-10-22T07:48:27;3.55;;;1.35;;
62582;SDS011;48641;51.676;5.808;2022-10-22T07:50:53;3.60;;;1.40;;
62582;SDS011;48641;51.676;5.808;2022-10-22T07:53:19;4.03;;;1.35;;
62582;SDS011;48641;51.676;5.808;2022-10-22T07:55:48;3.67;;;1.50;;
62582;SDS011;48641;51.676;5.808;2022-10-22T07:58:15;4.90;;;1.40;;
62582;SDS011;48641;51.676;5.808;2022-10-22T08:00:41;2.97;;;1.17;;
62582;SDS011;48641;51.676;5.808;2022-10-22T08:03:08;3.20;;;1.20;;
62582;SDS011;48641;51.676;5.808;2022-10-22T08:05:35;3.83;;;1.27;;
62582;SDS011;48641;51.676;5.808;2022-10-22T08:08:03;3.58;;;1.42;;
62582;SDS011;48641;51.676;5.808;2022-10-22T08:10:29;2.88;;;1.20;;
62582;SDS011;48641;51.676;5.808;2022-10-22T08:12:55;4.28;;;1.20;;
62582;SDS011;48641;51.676;5.808;2022-10-22T08:15:21;3.33;;;1.25;;
62582;SDS011;48641;51.676;5.808;2022-10-22T08:17:48;3.65;;;1.40;;
62582;SDS011;48641;51.676;5.808;2022-10-22T08:20:14;5.05;;;1.48;;
62582;SDS011;48641;51.676;5.808;2022-10-22T08:22:40;4.47;;;1.27;;
62582;SDS011;48641;51.676;5.808;2022-10-22T08:25:05;5.68;;;1.30;;
62582;SDS011;48641;51.676;5.808;2022-10-22T08:27:31;3.28;;;1.23;;
62582;SDS011;48641;51.676;5.808;2022-10-22T08:29:57;4.03;;;1.20;;
62582;SDS011;48641;51.676;5.808;2022-10-22T08:32:22;4.55;;;1.30;;
62582;SDS011;48641;51.676;5.808;2022-10-22T08:34:48;4.22;;;1.33;;
62582;SDS011;48641;51.676;5.808;2022-10-22T08:37:14;3.38;;;1.23;;
62582;SDS011;48641;51.676;5.808;2022-10-22T08:39:41;5.38;;;1.30;;
62582;SDS011;48641;51.676;5.808;2022-10-22T08:53:00;4.25;;;1.48;;
62582;SDS011;48641;51.676;5.808;2022-10-22T08:57:58;3.20;;;1.20;;
62582;SDS011;48641;51.676;5.808;2022-10-22T09:00:32;2.90;;;1.10;;
62582;SDS011;48641;51.676;5.808;2022-10-22T09:03:33;4.07;;;1.30;;
62582;SDS011;48641;51.676;5.808;2022-10-22T09:06:21;4.13;;;1.67;;
62582;SDS011;48641;51.676;5.808;2022-10-22T09:08:49;3.45;;;1.10;;
62582;SDS011;48641;51.676;5.808;2022-10-22T09:13:48;3.35;;;1.13;;
62582;SDS011;48641;51.676;5.808;2022-10-22T09:16:16;5.00;;;1.50;;
62582;SDS011;48641;51.676;5.808;2022-10-22T09:24:10;4.60;;;1.45;;
62582;SDS011;48641;51.676;5.808;2022-10-22T09:26:42;4.07;;;1.30;;
62582;SDS011;48641;51.676;5.808;2022-10-22T09:29:12;3.53;;;1.38;;
62582;SDS011;48641;51.676;5.808;2022-10-22T09:31:42;3.78;;;1.20;;
62582;SDS011;48641;51.676;5.808;2022-10-22T09:34:08;3.22;;;1.27;;
62582;SDS011;48641;51.676;5.808;2022-10-22T09:36:33;3.85;;;1.10;;
62582;SDS011;48641;51.676;5.808;2022-10-22T09:39:01;3.08;;;1.08;;
62582;SDS011;48641;51.676;5.808;2022-10-22T09:41:28;4.20;;;1.40;;
62582;SDS011;48641;51.676;5.808;2022-10-22T09:43:54;5.43;;;1.42;;
62582;SDS011;48641;51.676;5.808;2022-10-22T09:46:21;4.07;;;1.20;;
62582;SDS011;48641;51.676;5.808;2022-10-22T09:48:50;4.72;;;1.00;;
62582;SDS011;48641;51.676;5.808;2022-10-22T09:52:17;4.90;;;1.38;;
62582;SDS011;48641;51.676;5.808;2022-10-22T09:54:23;3.83;;;1.20;;
62582;SDS011;48641;51.676;5.808;2022-10-22T09:59:38;4.30;;;1.40;;
62582;SDS011;48641;51.676;5.808;2022-10-22T10:02:20;3.17;;;1.10;;
62582;SDS011;48641;51.676;5.808;2022-10-22T10:04:50;3.38;;;1.25;;
62582;SDS011;48641;51.676;5.808;2022-10-22T10:07:19;6.15;;;1.38;;
62582;SDS011;48641;51.676;5.808;2022-10-22T10:09:46;4.47;;;1.40;;
62582;SDS011;48641;51.676;5.808;2022-10-22T10:17:32;4.28;;;1.20;;
62582;SDS011;48641;51.676;5.808;2022-10-22T10:22:57;5.00;;;1.20;;
62582;SDS011;48641;51.676;5.808;2022-10-22T10:28:51;5.35;;;1.30;;
62582;SDS011;48641;51.676;5.808;2022-10-22T10:31:48;4.28;;;1.20;;
62582;SDS011;48641;51.676;5.808;2022-10-22T10:34:45;3.40;;;1.23;;
62582;SDS011;48641;51.676;5.808;2022-10-22T10:37:37;4.25;;;1.30;;
62582;SDS011;48641;51.676;5.808;2022-10-22T10:54:04;3.42;;;1.20;;
62582;SDS011;48641;51.676;5.808;2022-10-22T10:57:03;6.10;;;1.52;;
62582;SDS011;48641;51.676;5.808;2022-10-22T11:07:57;3.33;;;1.25;;
62582;SDS011;48641;51.676;5.808;2022-10-22T11:13:23;4.47;;;1.35;;
62582;SDS011;48641;51.676;5.808;2022-10-22T11:18:55;6.40;;;1.50;;
62582;SDS011;48641;51.676;5.808;2022-10-22T11:21:42;5.20;;;1.08;;
62582;SDS011;48641;51.676;5.808;2022-10-22T11:29:32;4.10;;;1.42;;
62582;SDS011;48641;51.676;5.808;2022-10-22T11:32:03;3.47;;;1.10;;
62582;SDS011;48641;51.676;5.808;2022-10-22T11:34:38;4.85;;;1.48;;
62582;SDS011;48641;51.676;5.808;2022-10-22T11:37:12;5.13;;;1.17;;
62582;SDS011;48641;51.676;5.808;2022-10-22T11:42:22;3.35;;;1.33;;
62582;SDS011;48641;51.676;5.808;2022-10-22T11:45:05;4.18;;;1.25;;
62582;SDS011;48641;51.676;5.808;2022-10-22T11:50:23;6.75;;;1.20;;
62582;SDS011;48641;51.676;5.808;2022-10-22T12:03:51;6.13;;;1.77;;
62582;SDS011;48641;51.676;5.808;2022-10-22T12:06:50;4.72;;;1.38;;
62582;SDS011;48641;51.676;5.808;2022-10-22T12:09:21;3.17;;;1.15;;
62582;SDS011;48641;51.676;5.808;2022-10-22T12:11:50;3.75;;;1.15;;
62582;SDS011;48641;51.676;5.808;2022-10-22T12:19:43;4.00;;;1.08;;
62582;SDS011;48641;51.676;5.808;2022-10-22T12:24:47;3.22;;;1.27;;
62582;SDS011;48641;51.676;5.808;2022-10-22T12:27:19;5.95;;;1.60;;
62582;SDS011;48641;51.676;5.808;2022-10-22T12:29:48;4.90;;;1.63;;
62582;SDS011;48641;51.676;5.808;2022-10-22T12:32:17;5.93;;;1.50;;
62582;SDS011;48641;51.676;5.808;2022-10-22T12:34:44;7.15;;;1.67;;
62582;SDS011;48641;51.676;5.808;2022-10-22T12:37:12;4.32;;;1.30;;
62582;SDS011;48641;51.676;5.808;2022-10-22T12:39:40;4.68;;;1.42;;
62582;SDS011;48641;51.676;5.808;2022-10-22T12:42:06;6.68;;;1.80;;
62582;SDS011;48641;51.676;5.808;2022-10-22T12:44:36;4.20;;;1.48;;
62582;SDS011;48641;51.676;5.808;2022-10-22T12:47:02;6.45;;;2.33;;
62582;SDS011;48641;51.676;5.808;2022-10-22T12:49:37;5.35;;;1.70;;
62582;SDS011;48641;51.676;5.808;2022-10-22T12:52:06;5.80;;;1.45;;
62582;SDS011;48641;51.676;5.808;2022-10-22T12:54:37;4.45;;;1.65;;
62582;SDS011;48641;51.676;5.808;2022-10-22T12:57:03;4.93;;;1.55;;
62582;SDS011;48641;51.676;5.808;2022-10-22T12:59:33;4.47;;;1.60;;
62582;SDS011;48641;51.676;5.808;2022-10-22T13:02:01;5.25;;;1.45;;
62582;SDS011;48641;51.676;5.808;2022-10-22T13:04:32;5.38;;;1.58;;
62582;SDS011;48641;51.676;5.808;2022-10-22T13:09:38;7.30;;;2.10;;
62582;SDS011;48641;51.676;5.808;2022-10-22T13:12:09;9.00;;;2.28;;
62582;SDS011;48641;51.676;5.808;2022-10-22T13:14:40;7.68;;;1.90;;
62582;SDS011;48641;51.676;5.808;2022-10-22T13:17:09;12.60;;;2.20;;
62582;SDS011;48641;51.676;5.808;2022-10-22T13:24:51;11.40;;;2.10;;
62582;SDS011;48641;51.676;5.808;2022-10-22T13:27:16;8.98;;;1.92;;
62582;SDS011;48641;51.676;5.808;2022-10-22T13:29:42;6.43;;;2.03;;
62582;SDS011;48641;51.676;5.808;2022-10-22T13:32:18;6.68;;;2.15;;
62582;SDS011;48641;51.676;5.808;2022-10-22T13:34:57;7.38;;;2.13;;
62582;SDS011;48641;51.676;5.808;2022-10-22T13:37:27;9.80;;;1.90;;
62582;SDS011;48641;51.676;5.808;2022-10-22T13:39:55;7.00;;;1.67;;
62582;SDS011;48641;51.676;5.808;2022-10-22T13:42:21;11.10;;;2.10;;
62582;SDS011;48641;51.676;5.808;2022-10-22T13:44:46;8.77;;;2.20;;
62582;SDS011;48641;51.676;5.808;2022-10-22T13:47:23;5.68;;;1.90;;
62582;SDS011;48641;51.676;5.808;2022-10-22T13:49:50;7.40;;;1.75;;
62582;SDS011;48641;51.676;5.808;2022-10-22T13:52:21;8.18;;;1.80;;
62582;SDS011;48641;51.676;5.808;2022-10-22T13:54:57;7.38;;;1.75;;
62582;SDS011;48641;51.676;5.808;2022-10-22T13:57:23;6.80;;;1.60;;
62582;SDS011;48641;51.676;5.808;2022-10-22T13:59:48;6.93;;;1.77;;
62582;SDS011;48641;51.676;5.808;2022-10-22T14:02:14;4.07;;;1.50;;
62582;SDS011;48641;51.676;5.808;2022-10-22T14:04:40;7.88;;;1.80;;
62582;SDS011;48641;51.676;5.808;2022-10-22T14:07:15;7.93;;;1.70;;
62582;SDS011;48641;51.676;5.808;2022-10-22T14:09:41;5.60;;;1.55;;
62582;SDS011;48641;51.676;5.808;2022-10-22T14:12:11;9.48;;;1.88;;
62582;SDS011;48641;51.676;5.808;2022-10-22T14:14:38;7.30;;;1.45;;
62582;SDS011;48641;51.676;5.808;2022-10-22T14:17:04;6.40;;;1.88;;
62582;SDS011;48641;51.676;5.808;2022-10-22T14:19:32;7.75;;;1.70;;
62582;SDS011;48641;51.676;5.808;2022-10-22T14:21:58;5.05;;;1.60;;
62582;SDS011;48641;51.676;5.808;2022-10-22T14:24:24;5.82;;;1.80;;
62582;SDS011;48641;51.676;5.808;2022-10-22T14:26:49;4.93;;;1.63;;
62582;SDS011;48641;51.676;5.808;2022-10-22T14:29:15;7.32;;;1.70;;
62582;SDS011;48641;51.676;5.808;2022-10-22T14:31:41;5.93;;;1.70;;
62582;SDS011;48641;51.676;5.808;2022-10-22T14:34:09;6.68;;;1.73;;
62582;SDS011;48641;51.676;5.808;2022-10-22T14:36:35;5.38;;;1.58;;
62582;SDS011;48641;51.676;5.808;2022-10-22T14:39:01;10.55;;;2.45;;
62582;SDS011;48641;51.676;5.808;2022-10-22T14:41:26;8.15;;;1.95;;
62582;SDS011;48641;51.676;5.808;2022-10-22T14:43:53;5.18;;;1.83;;
62582;SDS011;48641;51.676;5.808;2022-10-22T14:46:19;3.45;;;1.27;;
62582;SDS011;48641;51.676;5.808;2022-10-22T14:48:45;4.80;;;1.50;;
62582;SDS011;48641;51.676;5.808;2022-10-22T14:51:16;6.90;;;1.60;;
62582;SDS011;48641;51.676;5.808;2022-10-22T14:53:42;6.20;;;1.50;;
62582;SDS011;48641;51.676;5.808;2022-10-22T14:56:13;6.40;;;1.70;;
62582;SDS011;48641;51.676;5.808;2022-10-22T14:58:39;6.88;;;1.67;;
62582;SDS011;48641;51.676;5.808;2022-10-22T15:01:06;6.22;;;1.55;;
62582;SDS011;48641;51.676;5.808;2022-10-22T15:03:32;5.32;;;1.67;;
62582;SDS011;48641;51.676;5.808;2022-10-22T15:05:58;7.55;;;1.60;;
62582;SDS011;48641;51.676;5.808;2022-10-22T15:08:24;6.18;;;1.60;;
62582;SDS011;48641;51.676;5.808;2022-10-22T15:11:04;6.80;;;1.42;;
62582;SDS011;48641;51.676;5.808;2022-10-22T15:13:32;4.07;;;1.70;;
62582;SDS011;48641;51.676;5.808;2022-10-22T15:15:59;4.55;;;1.30;;
62582;SDS011;48641;51.676;5.808;2022-10-22T15:18:25;4.07;;;1.50;;
62582;SDS011;48641;51.676;5.808;2022-10-22T15:20:55;4.88;;;1.40;;
62582;SDS011;48641;51.676;5.808;2022-10-22T15:23:22;3.58;;;1.30;;
62582;SDS011;48641;51.676;5.808;2022-10-22T15:25:48;4.25;;;1.30;;
62582;SDS011;48641;51.676;5.808;2022-10-22T15:28:14;6.20;;;1.20;;
62582;SDS011;48641;51.676;5.808;2022-10-22T15:30:39;5.53;;;1.30;;
62582;SDS011;48641;51.676;5.808;2022-10-22T15:33:05;3.85;;;1.40;;
62582;SDS011;48641;51.676;5.808;2022-10-22T15:35:30;5.00;;;1.67;;
62582;SDS011;48641;51.676;5.808;2022-10-22T15:37:56;7.38;;;1.60;;
62582;SDS011;48641;51.676;5.808;2022-10-22T15:40:22;2.90;;;1.20;;
62582;SDS011;48641;51.676;5.808;2022-10-22T15:42:47;5.63;;;1.75;;
62582;SDS011;48641;51.676;5.808;2022-10-22T15:45:13;5.47;;;1.50;;
62582;SDS011;48641;51.676;5.808;2022-10-22T15:47:39;5.93;;;1.40;;
62582;SDS011;48641;51.676;5.808;2022-10-22T15:50:09;4.82;;;1.30;;
62582;SDS011;48641;51.676;5.808;2022-10-22T15:52:34;4.18;;;1.38;;
62582;SDS011;48641;51.676;5.808;2022-10-22T15:55:00;3.28;;;1.30;;
62582;SDS011;48641;51.676;5.808;2022-10-22T15:57:30;3.33;;;1.38;;
62582;SDS011;48641;51.676;5.808;2022-10-22T15:59:56;5.05;;;1.88;;
62582;SDS011;48641;51.676;5.808;2022-10-22T16:02:22;6.95;;;1.45;;
62582;SDS011;48641;51.676;5.808;2022-10-22T16:04:47;4.00;;;1.15;;
62582;SDS011;48641;51.676;5.808;2022-10-22T16:07:13;4.25;;;1.52;;
62582;SDS011;48641;51.676;5.808;2022-10-22T16:09:38;5.55;;;1.40;;
62582;SDS011;48641;51.676;5.808;2022-10-22T16:12:04;5.78;;;1.65;;
62582;SDS011;48641;51.676;5.808;2022-10-22T16:14:30;4.72;;;1.50;;
62582;SDS011;48641;51.676;5.808;2022-10-22T16:16:55;4.20;;;1.50;;
62582;SDS011;48641;51.676;5.808;2022-10-22T16:19:22;3.78;;;1.25;;
62582;SDS011;48641;51.676;5.808;2022-10-22T16:21:48;4.75;;;1.25;;
62582;SDS011;48641;51.676;5.808;2022-10-22T16:24:15;5.45;;;1.60;;
62582;SDS011;48641;51.676;5.808;2022-10-22T16:26:41;4.63;;;1.20;;
62582;SDS011;48641;51.676;5.808;2022-10-22T16:29:06;3.95;;;1.30;;
62582;SDS011;48641;51.676;5.808;2022-10-22T16:31:34;3.10;;;1.08;;
62582;SDS011;48641;51.676;5.808;2022-10-22T16:34:00;3.15;;;1.45;;
62582;SDS011;48641;51.676;5.808;2022-10-22T16:36:25;4.93;;;1.30;;
62582;SDS011;48641;51.676;5.808;2022-10-22T16:38:51;3.28;;;1.10;;
62582;SDS011;48641;51.676;5.808;2022-10-22T16:41:17;4.18;;;1.25;;
62582;SDS011;48641;51.676;5.808;2022-10-22T16:43:45;3.83;;;1.25;;
62582;SDS011;48641;51.676;5.808;2022-10-22T16:46:13;3.85;;;1.20;;
62582;SDS011;48641;51.676;5.808;2022-10-22T16:48:43;3.58;;;1.38;;
62582;SDS011;48641;51.676;5.808;2022-10-22T16:51:13;3.35;;;1.20;;
62582;SDS011;48641;51.676;5.808;2022-10-22T16:53:40;3.95;;;1.10;;
62582;SDS011;48641;51.676;5.808;2022-10-22T16:56:09;4.13;;;1.30;;